createdAt,value
2022-08-20T00:01:22.783Z,99859.72
2022-08-20T00:04:30.609Z,99869.34
2022-08-20T00:07:33.834Z,99878.06
2022-08-20T00:10:45.240Z,99879.50
2022-08-20T00:13:54.501Z,99900.44
2022-08-20T00:16:58.010Z,99899.06
2022-08-20T00:20:10.501Z,99900.94
2022-08-20T00:23:14.619Z,99895.78
2022-08-20T00:26:18.199Z,99902.13
2022-08-20T00:29:23.846Z,99918.72
2022-08-20T00:32:26.354Z,99912.50
2022-08-20T00:35:33.311Z,99902.84
2022-08-20T00:38:37.919Z,99900.81
2022-08-20T00:41:41.516Z,99893.28
2022-08-20T00:44:48.774Z,99894.37
2022-08-20T00:47:56.283Z,99903.72
2022-08-20T00:51:21.456Z,99892.94
2022-08-20T00:54:55.911Z,99892.94
2022-08-20T00:58:08.947Z,99892.28
2022-08-20T01:01:12.404Z,99884.09
2022-08-20T01:04:16.361Z,99866.69
2022-08-20T01:07:21.171Z,99855.94
2022-08-20T01:10:28.469Z,99848.81
2022-08-20T01:13:37.636Z,99844.69
2022-08-20T01:16:40.633Z,99826.66
2022-08-20T01:19:51.538Z,99817.00
2022-08-20T01:23:50.197Z,99803.37
2022-08-20T01:26:55.092Z,99795.78
2022-08-20T01:30:01.800Z,99795.09
2022-08-20T01:33:18.203Z,99798.25
2022-08-20T01:36:34.064Z,99810.19
2022-08-20T01:39:37.622Z,99815.91
2022-08-20T01:42:59.989Z,99806.25
2022-08-20T01:46:04.097Z,99823.16
2022-08-20T01:49:23.029Z,99818.78
2022-08-20T01:52:41.475Z,99816.09
2022-08-20T01:55:44.988Z,99827.56
2022-08-20T01:58:59.282Z,99827.56
2022-08-20T02:02:05.820Z,99842.28
2022-08-20T02:05:13.195Z,99825.28
2022-08-20T02:08:15.964Z,99820.75
2022-08-20T02:11:19.853Z,99830.09
2022-08-20T02:14:23.321Z,99825.72
2022-08-20T02:17:27.544Z,99828.25
2022-08-20T02:20:32.207Z,99834.94
2022-08-20T02:23:40.249Z,99847.44
2022-08-20T02:26:43.978Z,99840.66
2022-08-20T02:29:48.187Z,99840.34
2022-08-20T02:32:56.313Z,99837.84
2022-08-20T02:35:59.827Z,99830.44
2022-08-20T02:39:05.493Z,99838.81
2022-08-20T02:42:12.499Z,99850.66
2022-08-20T02:45:19.294Z,99859.50
2022-08-20T02:48:23.300Z,99849.06
2022-08-20T02:51:30.653Z,99857.91
2022-08-20T02:54:34.506Z,99862.97
2022-08-20T02:57:38.501Z,99860.12
2022-08-20T03:00:45.147Z,99873.69
2022-08-20T03:03:49.452Z,99883.94
2022-08-20T03:07:00.659Z,99893.28
2022-08-20T03:10:04.353Z,99896.56
2022-08-20T03:13:12.326Z,99906.03
2022-08-20T03:16:15.240Z,99905.91
2022-08-20T03:19:18.353Z,99909.19
2022-08-20T03:22:25.552Z,99906.03
2022-08-20T03:25:29.620Z,99941.72
2022-08-20T03:28:35.966Z,99941.25
2022-08-20T03:31:44.188Z,99911.53
2022-08-20T03:34:50.279Z,99935.81
2022-08-20T03:37:53.257Z,99941.84
2022-08-20T03:40:59.150Z,99939.16
2022-08-20T03:44:03.546Z,99938.97
2022-08-20T03:47:29.636Z,99942.47
2022-08-20T03:50:53.237Z,99948.47
2022-08-20T03:53:56.442Z,99953.34
2022-08-20T03:57:01.163Z,99951.12
2022-08-20T04:00:13.108Z,99944.34
2022-08-20T04:03:16.942Z,99939.72
2022-08-20T04:06:20.069Z,99942.09
2022-08-20T04:09:23.395Z,99936.12
2022-08-20T04:12:27.625Z,99934.66
2022-08-20T04:15:31.723Z,99920.91
2022-08-20T04:18:36.518Z,99906.50
2022-08-20T04:21:41.407Z,99878.22
2022-08-20T04:24:46.084Z,99868.56
2022-08-20T04:28:15.587Z,99854.03
2022-08-20T04:31:24.488Z,99863.94
2022-08-20T04:34:48.167Z,99886.56
2022-08-20T04:38:15.320Z,99919.56
2022-08-20T04:41:40.860Z,99912.16
2022-08-20T04:44:46.025Z,99904.34
2022-08-20T04:47:52.300Z,99893.28
2022-08-20T04:51:01.431Z,99889.59
2022-08-20T04:54:08.787Z,99894.78
2022-08-20T04:57:14.424Z,99899.19
2022-08-20T05:00:17.564Z,99911.94
2022-08-20T05:03:24.769Z,99906.59
2022-08-20T05:06:31.601Z,99921.91
2022-08-20T05:09:44.136Z,99923.06
2022-08-20T05:13:08.584Z,99923.19
2022-08-20T05:16:19.951Z,99912.50
2022-08-20T05:19:26.238Z,99917.81
2022-08-20T05:22:33.501Z,99921.56
2022-08-20T05:25:39.641Z,99913.28
2022-08-20T05:29:05.640Z,99907.13
2022-08-20T05:32:08.984Z,99897.03
2022-08-20T05:35:15.612Z,99889.09
2022-08-20T05:38:37.624Z,99895.50
2022-08-20T05:41:43.319Z,99899.53
2022-08-20T05:45:11.095Z,99897.97
2022-08-20T05:48:22.180Z,99888.09
2022-08-20T05:51:49.868Z,99903.88
2022-08-20T05:54:55.854Z,99910.59
2022-08-20T05:58:31.249Z,99913.50
2022-08-20T06:02:33.381Z,99907.75
2022-08-20T06:05:37.855Z,99887.81
2022-08-20T06:08:44.671Z,99889.47
2022-08-20T06:11:50.614Z,99892.44
2022-08-20T06:14:53.720Z,99899.78
2022-08-20T06:18:27.753Z,99896.63
2022-08-20T06:22:17.925Z,99912.69
2022-08-20T06:25:50.616Z,99917.84
2022-08-20T06:29:13.492Z,99918.78
2022-08-20T06:32:17.309Z,99920.22
2022-08-20T06:35:22.319Z,99926.19
2022-08-20T06:38:25.672Z,99922.63
2022-08-20T06:41:36.852Z,99937.88
2022-08-20T06:44:40.305Z,99926.06
2022-08-20T06:47:47.864Z,99930.38
2022-08-20T06:50:54.660Z,99941.53
2022-08-20T06:53:57.998Z,99953.44
2022-08-20T06:57:05.093Z,99958.38
2022-08-20T07:00:15.463Z,99977.34
2022-08-20T07:03:22.326Z,99982.31
2022-08-20T07:06:26.134Z,99989.53
2022-08-20T07:09:32.130Z,99991.25
2022-08-20T07:13:00.832Z,100001.03
2022-08-20T07:16:08.171Z,99990.94
2022-08-20T07:19:33.362Z,99987.94
2022-08-20T07:23:17.167Z,99980.91
2022-08-20T07:26:41.615Z,99982.19
2022-08-20T07:30:27.241Z,99993.63
2022-08-20T07:33:50.761Z,100013.78
2022-08-20T07:37:41.876Z,100023.84
2022-08-20T07:41:27.492Z,100032.19
2022-08-20T07:44:39.044Z,100064.78
2022-08-20T07:48:31.860Z,100116.56
2022-08-20T07:52:01.191Z,100145.94
2022-08-20T07:59:04.483Z,100144.56
2022-08-20T08:02:55.903Z,100136.53
2022-08-20T08:06:29.243Z,100140.19
2022-08-20T08:09:35.923Z,100153.28
2022-08-20T08:13:02.356Z,100163.72
2022-08-20T08:16:10.291Z,100183.91
2022-08-20T08:19:17.437Z,100197.19
2022-08-20T08:22:22.222Z,100196.53
2022-08-20T08:25:29.949Z,100173.13
2022-08-20T08:28:54.816Z,100130.78
2022-08-20T08:33:17.375Z,100118.19
2022-08-20T08:36:58.851Z,100124.84
2022-08-20T08:40:26.018Z,100121.06
2022-08-20T08:43:53.902Z,100118.09
2022-08-20T08:47:46.586Z,100109.69
2022-08-20T08:51:44.042Z,100091.69
2022-08-20T08:55:30.044Z,100093.59
2022-08-20T08:59:12.855Z,100088.78
2022-08-20T09:03:25.859Z,100089.44
2022-08-20T09:07:14.700Z,100111.37
2022-08-20T09:11:22.057Z,100131.09
2022-08-20T09:14:48.069Z,100156.50
2022-08-20T09:18:20.461Z,100182.53
2022-08-20T09:22:11.805Z,100173.97
2022-08-20T09:25:55.148Z,100165.44
2022-08-20T09:29:38.567Z,100150.78
2022-08-20T09:33:06.401Z,100135.13
2022-08-20T09:36:49.315Z,100118.06
2022-08-20T09:40:15.054Z,100104.63
2022-08-20T09:43:48.124Z,100104.34
2022-08-20T09:47:51.789Z,100079.12
2022-08-20T09:50:58.210Z,100043.91
2022-08-20T09:55:14.405Z,100029.41
2022-08-20T09:58:27.414Z,99998.81
2022-08-20T10:02:30.717Z,99994.69
2022-08-20T10:06:15.366Z,99968.19
2022-08-20T10:09:21.923Z,99919.09
2022-08-20T10:13:21.547Z,99884.50
2022-08-20T10:16:44.291Z,99888.75
2022-08-20T10:19:49.819Z,99922.56
2022-08-20T10:22:53.911Z,99949.09
2022-08-20T10:25:57.047Z,99963.47
2022-08-20T10:28:59.810Z,99964.28
2022-08-20T10:32:14.836Z,99999.13
2022-08-20T10:35:20.631Z,100012.03
2022-08-20T10:38:26.481Z,100015.97
2022-08-20T10:41:29.068Z,100014.06
2022-08-20T10:44:54.040Z,100026.63
2022-08-20T10:48:01.412Z,100042.50
2022-08-20T10:51:05.742Z,100052.53
2022-08-20T10:54:12.300Z,100060.50
2022-08-20T10:57:21.392Z,100060.75
2022-08-20T11:00:29.815Z,100072.06
2022-08-20T11:03:36.491Z,100075.28
2022-08-20T11:06:39.707Z,100077.41
2022-08-20T11:09:43.863Z,100080.34
2022-08-20T11:12:48.580Z,100085.25
2022-08-20T11:15:53.357Z,100093.31
2022-08-20T11:18:56.298Z,100089.62
2022-08-20T11:21:59.656Z,100084.19
2022-08-20T11:25:03.050Z,100084.22
2022-08-20T11:28:10.208Z,100084.22
2022-08-20T11:31:13.111Z,100076.47
2022-08-20T11:34:20.957Z,100067.34
2022-08-20T11:37:26.611Z,100069.75
2022-08-20T11:40:31.791Z,100066.19
2022-08-20T11:44:17.461Z,100057.34
2022-08-20T11:47:27.362Z,100057.53
2022-08-20T11:50:34.507Z,100064.13
2022-08-20T11:54:00.988Z,100054.88
2022-08-20T11:57:11.672Z,100046.84
2022-08-20T12:00:32.311Z,100040.53
2022-08-20T12:03:44.557Z,100040.94
2022-08-20T12:06:47.835Z,100038.69
2022-08-20T12:09:58.035Z,100031.72
2022-08-20T12:13:21.192Z,100026.47
2022-08-20T12:16:48.543Z,100021.03
2022-08-20T12:20:12.497Z,100016.03
2022-08-20T12:23:16.742Z,100018.53
2022-08-20T12:26:27.107Z,99997.66
2022-08-20T12:29:53.424Z,99999.88
2022-08-20T12:32:56.820Z,99996.03
2022-08-20T12:36:04.317Z,99983.59
2022-08-20T12:39:52.008Z,99975.88
2022-08-20T12:43:36.005Z,99969.53
2022-08-20T12:47:28.377Z,99958.72
2022-08-20T12:50:53.330Z,99948.63
2022-08-20T12:54:19.570Z,99947.72
2022-08-20T12:57:37.721Z,99948.66
2022-08-20T13:01:04.649Z,99943.06
2022-08-20T13:05:11.886Z,99946.13
2022-08-20T13:08:19.467Z,99950.97
2022-08-20T13:11:47.135Z,99943.13
2022-08-20T13:15:18.112Z,99943.09
2022-08-20T13:18:52.594Z,99950.16
2022-08-20T13:22:35.976Z,99943.28
2022-08-20T13:25:40.616Z,99943.34
2022-08-20T13:28:43.457Z,99937.63
2022-08-20T13:32:12.038Z,99936.50
2022-08-20T13:35:55.757Z,99934.16
2022-08-20T13:39:18.617Z,99932.78
2022-08-20T13:43:04.490Z,99939.91
2022-08-20T13:46:50.666Z,99945.47
2022-08-20T13:50:05.168Z,99956.31
2022-08-20T13:53:33.076Z,99964.00
2022-08-20T13:57:17.957Z,99964.28
2022-08-20T14:00:32.322Z,99982.31
2022-08-20T14:03:58.200Z,99988.66
2022-08-20T14:07:22.993Z,99960.59
2022-08-20T14:10:33.094Z,99941.41
2022-08-20T14:13:36.912Z,99934.69
2022-08-20T14:16:44.451Z,99931.16
2022-08-20T14:19:52.163Z,99934.50
2022-08-20T14:22:55.549Z,99923.38
2022-08-20T14:26:19.199Z,99917.13
2022-08-20T14:29:28.881Z,99926.44
2022-08-20T14:33:11.451Z,99925.75
2022-08-20T14:36:36.102Z,99922.19
2022-08-20T14:40:03.714Z,99933.91
2022-08-20T14:43:48.679Z,99927.94
2022-08-20T14:47:37.801Z,99907.91
2022-08-20T14:50:44.526Z,99901.94
2022-08-20T14:53:55.773Z,99917.28
2022-08-20T14:57:20.642Z,99934.09
2022-08-20T15:00:51.072Z,99940.97
2022-08-20T15:04:15.139Z,99950.25
2022-08-20T15:07:51.860Z,99948.00
2022-08-20T15:11:09.242Z,99955.53
2022-08-20T15:14:32.680Z,99953.38
2022-08-20T15:18:17.339Z,99956.47
2022-08-20T15:21:45.680Z,99959.25
2022-08-20T15:25:14.769Z,99951.16
2022-08-20T15:29:00.892Z,99942.44
2022-08-20T15:32:52.703Z,99943.16
2022-08-20T15:36:20.835Z,99951.34
2022-08-20T15:40:11.265Z,99945.81
2022-08-20T15:43:54.884Z,99958.81
2022-08-20T15:47:17.042Z,99961.25
2022-08-20T15:51:03.356Z,99963.34
2022-08-20T15:54:28.027Z,99968.44
2022-08-20T15:58:14.430Z,99969.47
2022-08-20T16:01:43.191Z,99968.75
2022-08-20T16:05:53.400Z,99971.00
2022-08-20T16:10:03.456Z,99970.13
2022-08-20T16:13:29.253Z,99963.47
2022-08-20T16:16:44.098Z,99970.59
2022-08-20T16:20:42.516Z,99973.53
2022-08-20T16:24:25.255Z,99976.88
2022-08-20T16:28:01.844Z,99983.00
2022-08-20T16:31:16.967Z,99977.50
2022-08-20T16:35:31.072Z,99981.91
2022-08-20T16:39:04.558Z,99983.97
2022-08-20T16:42:55.301Z,99984.88
2022-08-20T16:46:51.456Z,99979.94
2022-08-20T16:50:21.973Z,99980.84
2022-08-20T16:53:30.820Z,99983.13
2022-08-20T16:57:06.539Z,99981.78
2022-08-20T17:00:36.283Z,99980.00
2022-08-20T17:04:23.237Z,99979.22
2022-08-20T17:08:01.920Z,99979.31
2022-08-20T17:11:35.514Z,99983.38
2022-08-20T17:15:02.746Z,99997.97
2022-08-20T17:18:34.142Z,99989.00
2022-08-20T17:22:18.039Z,99985.97
2022-08-20T17:26:27.727Z,99981.69
2022-08-20T17:29:35.511Z,99982.81
2022-08-20T17:33:30.864Z,99986.28
2022-08-20T17:37:08.207Z,99981.97
2022-08-20T17:40:47.626Z,99983.28
2022-08-20T17:44:01.711Z,99987.97
2022-08-20T17:47:35.067Z,99974.50
2022-08-20T17:50:43.968Z,99971.22
2022-08-20T17:54:41.167Z,99964.66
2022-08-20T17:58:12.607Z,99963.47
2022-08-20T18:01:59.618Z,99962.13
2022-08-20T18:05:45.674Z,99976.31
2022-08-20T18:09:02.771Z,99975.25
2022-08-20T18:12:56.423Z,99973.06
2022-08-20T18:16:31.654Z,99973.94
2022-08-20T18:19:54.926Z,99945.56
2022-08-20T18:23:33.513Z,99945.31
2022-08-20T18:27:20.973Z,99931.56
2022-08-20T18:30:28.786Z,99935.59
2022-08-20T18:34:37.999Z,99941.59
2022-08-20T18:38:31.159Z,99957.13
2022-08-20T18:42:22.657Z,99955.41
2022-08-20T18:45:45.608Z,99949.91
2022-08-20T18:49:14.198Z,99946.47
2022-08-20T18:53:33.486Z,99950.13
2022-08-20T18:57:20.115Z,99954.22
2022-08-20T19:01:09.183Z,99959.94
2022-08-20T19:04:38.882Z,99961.22
2022-08-20T19:08:37.592Z,99959.97
2022-08-20T19:12:30.689Z,99954.75
2022-08-20T19:16:14.859Z,99958.53
2022-08-20T19:20:26.552Z,99955.84
2022-08-20T19:24:08.047Z,99961.69
2022-08-20T19:27:42.632Z,99944.44
2022-08-20T19:31:30.934Z,99954.56
2022-08-20T19:34:58.798Z,99949.19
2022-08-20T19:38:45.907Z,99940.47
2022-08-20T19:42:23.163Z,99940.94
2022-08-20T19:46:06.673Z,99947.72
2022-08-20T19:49:46.743Z,99939.22
2022-08-20T19:53:30.308Z,99930.97
2022-08-20T19:57:24.249Z,99931.75
2022-08-20T20:00:56.316Z,99933.97
2022-08-20T20:04:17.925Z,99936.97
2022-08-20T20:07:51.140Z,99939.22
2022-08-20T20:11:20.832Z,99932.37
2022-08-20T20:15:03.199Z,99929.38
2022-08-20T20:18:12.279Z,99928.09
2022-08-20T20:21:45.941Z,99939.75
2022-08-20T20:25:40.891Z,99942.94
2022-08-20T20:29:09.895Z,99937.00
2022-08-20T20:33:31.909Z,99929.06
2022-08-20T20:37:44.676Z,99925.75
2022-08-20T20:41:31.132Z,99921.97
2022-08-20T20:44:58.538Z,99919.06
2022-08-20T20:48:46.543Z,99918.13
2022-08-20T20:52:39.503Z,99912.75
2022-08-20T20:56:43.966Z,99918.59
2022-08-20T21:00:33.249Z,99916.91
2022-08-20T21:04:42.450Z,99913.41
2022-08-20T21:08:22.275Z,99911.38
2022-08-20T21:12:27.618Z,99909.34
2022-08-20T21:16:19.001Z,99908.91
2022-08-20T21:20:26.921Z,99904.75
2022-08-20T21:24:14.801Z,99906.22
2022-08-20T21:27:47.344Z,99910.00
2022-08-20T21:31:34.403Z,99914.59
2022-08-20T21:35:19.916Z,99910.66
2022-08-20T21:38:42.573Z,99910.00
2022-08-20T21:42:53.865Z,99916.81
2022-08-20T21:46:39.500Z,99931.19
2022-08-20T21:50:23.800Z,99925.22
2022-08-20T21:53:46.691Z,99926.78
2022-08-20T21:57:19.267Z,99926.78
2022-08-20T22:01:04.598Z,99932.16
2022-08-20T22:05:16.637Z,99921.59
2022-08-20T22:08:28.512Z,99907.22
2022-08-20T22:12:27.151Z,99906.44
2022-08-20T22:16:14.456Z,99912.63
2022-08-20T22:20:20.796Z,99912.00
2022-08-20T22:24:09.463Z,99922.63
2022-08-20T22:27:17.224Z,99912.38
2022-08-20T22:30:44.917Z,99911.28
2022-08-20T22:34:35.719Z,99903.06
2022-08-20T22:38:19.679Z,99912.72
2022-08-20T22:42:26.846Z,99907.53
2022-08-20T22:46:09.615Z,99906.88
2022-08-20T22:49:57.053Z,99904.66
2022-08-20T22:53:28.770Z,99908.13
2022-08-20T22:57:32.113Z,99903.88
2022-08-20T23:01:15.218Z,99902.28
2022-08-20T23:04:42.323Z,99893.75
2022-08-20T23:08:06.635Z,99892.97
2022-08-20T23:11:53.299Z,99886.66
2022-08-20T23:15:58.706Z,99885.91
2022-08-20T23:19:26.342Z,99878.47
2022-08-20T23:23:15.592Z,99872.00
2022-08-20T23:27:24.719Z,99873.41
2022-08-20T23:31:08.233Z,99870.59
2022-08-20T23:35:13.023Z,99870.13
2022-08-20T23:38:40.128Z,99874.56
2022-08-20T23:42:14.131Z,99875.22
2022-08-20T23:45:43.069Z,99867.16
2022-08-20T23:49:49.870Z,99874.28
2022-08-20T23:53:34.867Z,99870.03
2022-08-20T23:57:43.117Z,99867.50
